Time;durP1;ratioP1;P1;durP2;ratioP2;P2;SDS_P1;SDS_P2;PMS_P1;PMS_P2;Temp;Humidity;BMP_temperature;BMP_pressure;BME280_temperature;BME280_humidity;BME280_pressure;Samples;Min_cycle;Max_cycle;Signal;HPM_P1;HPM_P2
2023/01/09 00:01:15;;;;;;;4.57;0.25;;;19.80;52.90;;;;;;5066070;28;20527;-60
2023/01/09 00:03:43;;;;;;;9.00;0.13;;;19.70;52.80;;;;;;5063923;28;20124;-59
2023/01/09 00:06:10;;;;;;;0.30;0.10;;;19.70;52.80;;;;;;5066505;28;20041;-59
2023/01/09 00:08:38;;;;;;;2.20;0.13;;;19.70;52.80;;;;;;5065708;28;20113;-60
2023/01/09 00:11:06;;;;;;;1.10;0.10;;;19.70;52.80;;;;;;5065919;28;20106;-60
2023/01/09 00:13:33;;;;;;;4.00;0.20;;;19.70;52.80;;;;;;5065435;28;20662;-59
2023/01/09 00:16:00;;;;;;;3.80;0.50;;;19.70;52.80;;;;;;5063435;28;20029;-59
2023/01/09 00:18:27;;;;;;;0.95;0.40;;;19.60;52.70;;;;;;5065899;28;20123;-59
2023/01/09 00:20:54;;;;;;;0.73;0.10;;;19.60;52.70;;;;;;5065664;28;20051;-60
2023/01/09 00:23:21;;;;;;;3.00;0.10;;;19.60;52.60;;;;;;5065446;28;20150;-60
2023/01/09 00:25:50;;;;;;;0.85;0.00;;;19.60;52.60;;;;;;5065753;28;20037;-59
2023/01/09 00:28:17;;;;;;;0.30;0.10;;;19.60;52.50;;;;;;5063267;28;20527;-59
2023/01/09 00:30:44;;;;;;;1.27;0.50;;;19.60;52.50;;;;;;5065560;28;20044;-59
2023/01/09 00:33:11;;;;;;;0.30;0.00;;;19.60;52.40;;;;;;5065529;28;20063;-60
2023/01/09 00:35:39;;;;;;;2.05;0.10;;;19.60;52.50;;;;;;5065518;28;20045;-59
2023/01/09 00:38:06;;;;;;;0.47;0.08;;;19.50;52.40;;;;;;5065346;28;20044;-60
2023/01/09 00:40:33;;;;;;;0.88;0.10;;;19.50;52.40;;;;;;5064997;28;20036;-59
2023/01/09 00:43:02;;;;;;;6.93;0.20;;;19.50;52.40;;;;;;5062433;28;20358;-60
2023/01/09 00:45:30;;;;;;;1.23;0.10;;;19.50;52.30;;;;;;5065691;28;20524;-60
2023/01/09 00:48:02;;;;;;;1.52;0.10;;;19.50;52.30;;;;;;5065327;28;20036;-60
2023/01/09 00:50:32;;;;;;;3.72;0.10;;;19.50;52.30;;;;;;5065302;28;20122;-59
2023/01/09 00:53:04;;;;;;;1.65;0.10;;;19.40;52.20;;;;;;5062662;28;20515;-60
2023/01/09 00:55:33;;;;;;;2.63;0.10;;;19.50;52.30;;;;;;5063236;28;20125;-60
2023/01/09 00:58:00;;;;;;;5.10;0.40;;;19.50;52.20;;;;;;5062305;28;20052;-59
2023/01/09 01:00:28;;;;;;;1.70;0.45;;;19.50;52.20;;;;;;5065027;28;20778;-60
2023/01/09 01:02:55;;;;;;;1.45;0.10;;;19.50;52.30;;;;;;5064891;28;20066;-59
2023/01/09 01:08:10;;;;;;;2.72;1.17;;;19.40;52.20;;;;;;5062158;28;20049;-59
2023/01/09 01:10:38;;;;;;;3.17;0.40;;;19.40;52.30;;;;;;5064869;28;20297;-58
2023/01/09 01:13:05;;;;;;;4.07;0.10;;;19.40;52.30;;;;;;5064772;28;20039;-60
2023/01/09 01:15:33;;;;;;;3.05;0.10;;;19.40;52.30;;;;;;5064969;28;20122;-59
2023/01/09 01:18:00;;;;;;;1.45;0.85;;;19.40;52.90;;;;;;5060987;28;20124;-60
2023/01/09 01:20:27;;;;;;;3.40;0.05;;;19.40;52.30;;;;;;5064874;28;20133;-60
2023/01/09 01:22:54;;;;;;;1.77;0.10;;;19.40;52.30;;;;;;5065019;28;20044;-60
2023/01/09 01:25:22;;;;;;;1.35;0.20;;;19.40;52.20;;;;;;5065121;28;20044;-60
2023/01/09 01:27:49;;;;;;;1.80;0.15;;;19.40;52.20;;;;;;5064656;28;20042;-63
2023/01/09 01:30:17;;;;;;;8.57;0.10;;;19.40;52.20;;;;;;5064438;28;20583;-60
2023/01/09 01:32:46;;;;;;;1.58;0.10;;;19.40;52.20;;;;;;5064744;28;20119;-60
2023/01/09 01:35:13;;;;;;;5.88;0.45;;;19.40;52.20;;;;;;5064271;28;20061;-60
2023/01/09 01:37:41;;;;;;;6.15;0.77;;;19.40;52.10;;;;;;5061608;28;20469;-60
2023/01/09 01:40:09;;;;;;;1.00;0.40;;;19.40;52.10;;;;;;5064563;28;20047;-59
2023/01/09 01:42:37;;;;;;;1.45;0.10;;;19.30;52.00;;;;;;5062888;28;20041;-59
2023/01/09 01:45:09;;;;;;;1.27;0.20;;;19.40;52.00;;;;;;5061533;28;20044;-59
2023/01/09 01:47:52;;;;;;;2.35;0.65;;;19.30;52.00;;;;;;5064448;28;20086;-59
2023/01/09 01:50:27;;;;;;;1.65;0.22;;;19.40;51.90;;;;;;5064263;28;20047;-59
2023/01/09 01:53:00;;;;;;;2.92;0.10;;;19.30;51.90;;;;;;5063543;28;20051;-59
2023/01/09 01:55:27;;;;;;;3.03;0.30;;;19.30;51.90;;;;;;5062550;28;20040;-59
2023/01/09 01:58:00;;;;;;;2.30;0.60;;;19.30;51.90;;;;;;5064291;28;20048;-59
2023/01/09 02:00:32;;;;;;;2.33;0.17;;;19.30;51.80;;;;;;5062600;28;20052;-59
2023/01/09 02:03:02;;;;;;;1.23;0.17;;;19.30;51.80;;;;;;5064054;28;20040;-58
2023/01/09 02:05:29;;;;;;;1.10;0.43;;;19.30;51.80;;;;;;5064320;28;20109;-60
2023/01/09 02:07:56;;;;;;;6.35;0.30;;;19.30;51.70;;;;;;5062541;28;20144;-59
2023/01/09 02:10:24;;;;;;;6.28;0.10;;;19.30;51.70;;;;;;5063770;28;20051;-54
2023/01/09 02:12:51;;;;;;;1.40;0.10;;;19.30;51.70;;;;;;5062981;28;20040;-54
2023/01/09 02:15:19;;;;;;;4.88;0.10;;;19.30;51.80;;;;;;5063061;28;20072;-56
2023/01/09 02:18:18;;;;;;;9.63;0.35;;;19.20;51.70;;;;;;5065131;28;20525;-56
2023/01/09 02:20:57;;;;;;;11.30;0.68;;;19.30;51.70;;;;;;5064983;28;20766;-54
2023/01/09 02:23:56;;;;;;;7.85;1.48;;;19.30;51.90;;;;;;5063081;28;20109;-54
2023/01/09 02:26:56;;;;;;;8.93;1.88;;;19.20;52.40;;;;;;5064877;28;20049;-57
2023/01/09 02:30:09;;;;;;;4.95;0.40;;;19.20;51.90;;;;;;5044863;28;20060;-56
2023/01/09 02:32:45;;;;;;;11.55;1.75;;;19.20;51.90;;;;;;5043958;28;20063;-56
2023/01/09 02:35:34;;;;;;;;;;;19.20;52.00;;;;;;5046861;28;20124;-55
2023/01/09 02:38:08;;;;;;;7.22;0.45;;;19.10;52.00;;;;;;5044616;28;19932;-54
2023/01/09 02:40:41;;;;;;;6.70;0.25;;;19.10;52.10;;;;;;5045215;28;20133;-59
2023/01/09 02:43:09;;;;;;;6.15;0.82;;;19.10;52.10;;;;;;5059471;28;20786;-56
2023/01/09 02:45:36;;;;;;;7.15;0.68;;;19.10;52.10;;;;;;5064600;28;20043;-53
2023/01/09 02:48:05;;;;;;;1.67;0.20;;;19.10;52.10;;;;;;5064796;28;20052;-56
2023/01/09 02:50:39;;;;;;;4.80;0.77;;;19.10;52.10;;;;;;5064774;28;20043;-51
2023/01/09 02:53:40;;;;;;;9.27;0.57;;;19.10;52.10;;;;;;5064128;28;20480;-55
2023/01/09 02:56:20;;;;;;;3.30;0.38;;;19.10;52.00;;;;;;5064685;28;20073;-55
2023/01/09 02:59:13;;;;;;;4.68;0.20;;;19.10;52.10;;;;;;5064646;28;20057;-55
2023/01/09 03:01:50;;;;;;;6.18;0.30;;;19.10;52.00;;;;;;5063114;28;20788;-56
2023/01/09 03:04:25;;;;;;;6.65;0.32;;;19.10;52.00;;;;;;5066524;28;20093;-54
2023/01/09 03:06:59;;;;;;;6.07;0.50;;;19.10;52.00;;;;;;5068031;28;20098;-55
2023/01/09 03:09:31;;;;;;;6.28;0.30;;;19.10;52.00;;;;;;5067041;28;20037;-55
2023/01/09 03:12:04;;;;;;;6.82;0.50;;;19.10;51.90;;;;;;5067321;28;20133;-56
2023/01/09 03:14:33;;;;;;;3.67;0.25;;;19.10;51.90;;;;;;5066987;28;20121;-55
2023/01/09 03:17:05;;;;;;;2.78;0.10;;;19.10;51.90;;;;;;5068212;28;20047;-56
2023/01/09 03:19:35;;;;;;;5.50;0.20;;;19.10;51.80;;;;;;5068167;28;20455;-55
2023/01/09 03:22:02;;;;;;;3.42;0.55;;;19.10;51.80;;;;;;5062509;28;20505;-55
2023/01/09 03:24:29;;;;;;;16.85;0.88;;;19.10;51.90;;;;;;5048002;28;20459;-54
2023/01/09 03:26:56;;;;;;;6.53;0.20;;;19.10;51.80;;;;;;5048017;28;20040;-55
2023/01/09 03:29:24;;;;;;;8.48;0.40;;;19.10;51.80;;;;;;5048021;28;20049;-55
2023/01/09 03:31:51;;;;;;;8.35;0.20;;;19.10;51.80;;;;;;5048211;28;20045;-54
2023/01/09 03:34:18;;;;;;;7.30;0.32;;;19.10;51.80;;;;;;5047561;28;20049;-56
2023/01/09 03:36:46;;;;;;;2.95;0.52;;;19.00;51.70;;;;;;5047648;28;20424;-53
2023/01/09 03:39:13;;;;;;;4.13;0.20;;;19.10;51.70;;;;;;5047611;28;20053;-55
2023/01/09 03:41:40;;;;;;;7.55;0.17;;;19.00;51.60;;;;;;5050726;28;20583;-55
2023/01/09 03:44:07;;;;;;;3.35;1.05;;;19.00;51.50;;;;;;5067761;28;20094;-53
2023/01/09 03:46:34;;;;;;;4.80;0.25;;;19.00;51.50;;;;;;5067811;28;20528;-52
2023/01/09 03:49:01;;;;;;;1.65;0.30;;;19.00;51.50;;;;;;5067775;28;20072;-57
2023/01/09 03:51:28;;;;;;;1.63;0.20;;;19.00;51.50;;;;;;5067250;28;20048;-56
2023/01/09 03:53:56;;;;;;;3.20;0.10;;;19.00;51.50;;;;;;5066063;28;20048;-56
2023/01/09 03:56:24;;;;;;;7.80;1.17;;;19.00;51.50;;;;;;5067566;28;20409;-54
2023/01/09 03:58:52;;;;;;;1.60;0.43;;;19.00;51.50;;;;;;5067657;28;20137;-56
2023/01/09 04:01:19;;;;;;;6.53;0.50;;;19.00;51.50;;;;;;5067587;28;20063;-56
2023/01/09 04:03:46;;;;;;;3.80;0.10;;;19.00;51.50;;;;;;5067226;28;20131;-56
2023/01/09 04:06:13;;;;;;;3.45;0.45;;;19.00;51.60;;;;;;5067259;28;20749;-55
2023/01/09 04:08:40;;;;;;;2.35;0.10;;;19.00;51.60;;;;;;5067461;28;20070;-54
2023/01/09 04:11:08;;;;;;;2.45;0.10;;;19.00;51.60;;;;;;5055290;28;20041;-56
2023/01/09 04:13:35;;;;;;;3.70;0.63;;;19.00;51.60;;;;;;5047186;28;20139;-56
2023/01/09 04:16:02;;;;;;;3.15;0.10;;;19.00;51.50;;;;;;5046812;28;20049;-56
2023/01/09 04:18:29;;;;;;;2.33;0.20;;;19.00;51.50;;;;;;5067160;28;20044;-56
2023/01/09 04:20:56;;;;;;;2.60;0.65;;;19.00;51.50;;;;;;5066774;28;20071;-56
2023/01/09 04:23:23;;;;;;;1.55;0.25;;;19.00;51.40;;;;;;5063741;28;20059;-55
2023/01/09 04:25:50;;;;;;;2.17;0.20;;;19.00;51.40;;;;;;5067266;28;20084;-54
2023/01/09 04:28:19;;;;;;;4.45;0.30;;;19.00;51.30;;;;;;5067076;28;20046;-54
2023/01/09 04:30:46;;;;;;;2.70;0.20;;;19.00;51.30;;;;;;5067124;28;20131;-56
2023/01/09 04:33:13;;;;;;;0.95;0.57;;;19.00;51.30;;;;;;5066894;28;20814;-55
2023/01/09 04:35:40;;;;;;;7.85;0.50;;;19.00;51.20;;;;;;5066750;28;20075;-56
2023/01/09 04:38:07;;;;;;;0.85;0.10;;;19.00;51.20;;;;;;5066690;28;20040;-54
2023/01/09 04:40:34;;;;;;;2.42;0.40;;;19.10;51.20;;;;;;5066633;28;20599;-56
2023/01/09 04:43:01;;;;;;;4.20;0.30;;;19.10;51.20;;;;;;5066356;28;20049;-55
2023/01/09 04:45:29;;;;;;;0.82;0.40;;;19.00;51.20;;;;;;5066781;28;20144;-56
2023/01/09 04:47:56;;;;;;;1.52;0.10;;;19.10;51.20;;;;;;5066503;28;20036;-56
2023/01/09 04:50:23;;;;;;;4.50;0.63;;;19.10;51.20;;;;;;5065890;28;20080;-55
2023/01/09 04:52:50;;;;;;;8.50;0.73;;;19.10;51.20;;;;;;5066006;28;20043;-55
2023/01/09 04:55:18;;;;;;;2.35;0.35;;;19.10;51.20;;;;;;5066379;28;20053;-56
2023/01/09 04:57:45;;;;;;;4.20;0.08;;;19.10;51.20;;;;;;5066130;28;20163;-52
2023/01/09 05:00:12;;;;;;;3.78;0.15;;;19.10;51.10;;;;;;5051543;28;20053;-56
2023/01/09 05:02:40;;;;;;;1.05;0.20;;;19.10;51.10;;;;;;5046189;28;20033;-56
2023/01/09 05:05:09;;;;;;;4.20;0.10;;;19.10;51.10;;;;;;5055760;28;20060;-52
2023/01/09 05:07:36;;;;;;;3.60;0.30;;;19.10;51.10;;;;;;5065665;28;20532;-57
2023/01/09 05:10:04;;;;;;;2.38;0.32;;;19.10;51.10;;;;;;5066175;28;20041;-55
2023/01/09 05:12:33;;;;;;;3.45;0.10;;;19.10;51.00;;;;;;5065854;28;20143;-55
2023/01/09 05:15:00;;;;;;;2.33;0.20;;;19.10;51.00;;;;;;5065994;28;20233;-57
2023/01/09 05:17:27;;;;;;;2.78;0.10;;;19.10;50.90;;;;;;5065932;28;20461;-56
2023/01/09 05:19:55;;;;;;;2.05;0.20;;;19.10;50.90;;;;;;5065699;28;20072;-55
2023/01/09 05:22:23;;;;;;;6.57;0.10;;;19.10;50.90;;;;;;5065877;28;20048;-57
2023/01/09 05:24:50;;;;;;;3.45;0.90;;;19.10;50.90;;;;;;5066244;28;20084;-56
2023/01/09 05:27:17;;;;;;;3.05;0.03;;;19.10;50.90;;;;;;5065780;28;20028;-59
2023/01/09 05:29:44;;;;;;;4.82;0.30;;;19.10;50.80;;;;;;5065937;28;20084;-57
2023/01/09 05:32:11;;;;;;;2.58;0.65;;;19.10;50.80;;;;;;5065507;28;20131;-58
2023/01/09 05:34:38;;;;;;;3.72;0.20;;;19.10;50.70;;;;;;5065496;28;20634;-57
2023/01/09 05:37:06;;;;;;;2.35;0.20;;;19.10;51.30;;;;;;5065638;28;20131;-57
2023/01/09 05:39:33;;;;;;;0.28;0.20;;;19.10;50.70;;;;;;5065459;28;20053;-57
2023/01/09 05:42:00;;;;;;;2.97;0.10;;;19.10;50.70;;;;;;5065718;28;20062;-57
2023/01/09 05:44:27;;;;;;;1.27;0.10;;;19.10;50.70;;;;;;5065709;28;20055;-57
2023/01/09 05:46:54;;;;;;;1.42;0.30;;;19.10;50.70;;;;;;5063839;28;20493;-57
2023/01/09 05:49:21;;;;;;;1.10;0.13;;;19.10;50.70;;;;;;5045295;28;20053;-57
2023/01/09 05:51:48;;;;;;;5.47;0.47;;;19.10;50.70;;;;;;5059114;28;20067;-57
2023/01/09 05:54:17;;;;;;;4.75;0.30;;;19.10;50.70;;;;;;5065392;28;20564;-57
2023/01/09 05:56:44;;;;;;;1.75;0.10;;;19.20;50.70;;;;;;5065297;28;20044;-57
2023/01/09 05:59:11;;;;;;;2.33;0.65;;;19.20;50.70;;;;;;5065136;28;20072;-56
2023/01/09 06:01:38;;;;;;;3.15;0.55;;;19.20;50.60;;;;;;5065121;28;20037;-58
2023/01/09 06:04:05;;;;;;;1.85;0.30;;;19.20;50.70;;;;;;5064999;28;20040;-57
2023/01/09 06:06:32;;;;;;;0.70;0.10;;;19.20;50.60;;;;;;5065136;28;20047;-58
2023/01/09 06:08:59;;;;;;;3.63;0.38;;;19.20;50.60;;;;;;5064962;28;20048;-57
2023/01/09 06:11:28;;;;;;;2.10;0.30;;;19.20;50.60;;;;;;5065249;28;20048;-56
2023/01/09 06:13:55;;;;;;;1.00;0.10;;;19.20;50.60;;;;;;5064915;28;20075;-58
2023/01/09 06:16:22;;;;;;;5.85;0.20;;;19.20;50.60;;;;;;5064974;28;20036;-57
2023/01/09 06:18:49;;;;;;;1.48;0.10;;;19.20;50.60;;;;;;5064912;28;20044;-57
2023/01/09 06:21:16;;;;;;;1.25;0.25;;;19.20;50.60;;;;;;5062726;28;20570;-57
2023/01/09 06:23:43;;;;;;;1.90;0.10;;;19.20;50.70;;;;;;5064993;28;20041;-58
2023/01/09 06:26:10;;;;;;;2.58;0.22;;;19.20;50.60;;;;;;5065113;28;20117;-56
2023/01/09 06:28:39;;;;;;;1.52;0.20;;;19.20;50.60;;;;;;5064871;28;20102;-59
2023/01/09 06:31:06;;;;;;;4.10;0.10;;;19.20;50.60;;;;;;5046364;28;20590;-60
2023/01/09 06:33:33;;;;;;;3.45;0.10;;;19.20;50.60;;;;;;5064783;28;20497;-59
2023/01/09 06:36:00;;;;;;;2.38;0.22;;;19.20;50.60;;;;;;5060292;28;20049;-58
2023/01/09 06:38:27;;;;;;;2.05;0.35;;;19.20;50.60;;;;;;5052092;28;20040;-58
2023/01/09 06:40:54;;;;;;;3.67;0.10;;;19.20;50.60;;;;;;5069348;28;20086;-58
2023/01/09 06:43:21;;;;;;;3.03;0.38;;;19.20;50.60;;;;;;5068670;28;20041;-58
2023/01/09 06:45:49;;;;;;;2.83;0.10;;;19.20;50.50;;;;;;5068116;28;20060;-58
2023/01/09 06:48:16;;;;;;;5.85;0.10;;;19.20;50.40;;;;;;5068709;28;20139;-58
2023/01/09 06:50:44;;;;;;;1.55;0.15;;;19.20;50.40;;;;;;5068650;28;20051;-57
2023/01/09 06:53:11;;;;;;;1.73;0.43;;;19.20;50.40;;;;;;5068661;28;20075;-57
2023/01/09 06:55:38;;;;;;;0.88;0.28;;;19.20;50.40;;;;;;5068551;28;20070;-58
2023/01/09 06:58:05;;;;;;;1.67;0.10;;;19.20;50.30;;;;;;5068535;28;20044;-58
2023/01/09 07:00:32;;;;;;;2.30;0.20;;;19.20;50.30;;;;;;5067984;28;20591;-58
2023/01/09 07:03:01;;;;;;;1.42;0.22;;;19.20;50.30;;;;;;5064976;28;20124;-58
2023/01/09 07:05:28;;;;;;;2.10;0.30;;;19.20;50.20;;;;;;5068290;28;20106;-60
2023/01/09 07:07:55;;;;;;;2.45;0.10;;;19.20;50.20;;;;;;5066787;28;20045;-58
2023/01/09 07:10:23;;;;;;;21.25;0.95;;;19.20;50.20;;;;;;5068418;28;20097;-56
2023/01/09 07:12:50;;;;;;;9.02;1.13;;;19.20;50.40;;;;;;5068328;28;20136;-58
2023/01/09 07:15:17;;;;;;;8.48;0.47;;;19.20;50.40;;;;;;5057477;28;20056;-58
2023/01/09 07:17:44;;;;;;;2.85;0.20;;;19.20;50.50;;;;;;5048119;28;20124;-56
2023/01/09 07:20:13;;;;;;;0.57;0.10;;;19.20;50.50;;;;;;5048529;28;20049;-55
2023/01/09 07:22:40;;;;;;;1.40;0.03;;;19.20;50.50;;;;;;5068100;28;20071;-54
2023/01/09 07:25:07;;;;;;;3.58;0.57;;;19.20;50.30;;;;;;5059184;28;20040;-56
2023/01/09 07:27:35;;;;;;;5.82;0.00;;;19.20;49.70;;;;;;5074993;28;20039;-62
2023/01/09 07:30:02;;;;;;;2.85;0.30;;;19.30;50.20;;;;;;5074892;28;20055;-62
2023/01/09 07:32:29;;;;;;;4.50;0.10;;;19.30;50.40;;;;;;5076463;28;20045;-57
2023/01/09 07:34:56;;;;;;;1.95;0.20;;;19.30;50.50;;;;;;5075606;28;20127;-64
2023/01/09 07:37:25;;;;;;;4.45;0.20;;;19.40;50.60;;;;;;5076518;28;20032;-58
2023/01/09 07:39:52;;;;;;;8.23;0.20;;;19.40;50.60;;;;;;5075838;28;20101;-59
2023/01/09 07:42:19;;;;;;;4.60;0.00;;;19.50;50.60;;;;;;5074877;28;20050;-63
2023/01/09 07:44:46;;;;;;;2.67;0.08;;;19.50;51.10;;;;;;5075203;28;20055;-59
2023/01/09 07:47:13;;;;;;;3.88;1.13;;;19.50;50.40;;;;;;5074148;28;20560;-61
2023/01/09 07:49:40;;;;;;;0.10;0.00;;;19.50;50.30;;;;;;5074807;28;20467;-59
2023/01/09 07:52:07;;;;;;;2.72;0.00;;;19.60;50.30;;;;;;5074693;28;20044;-59
2023/01/09 07:54:36;;;;;;;3.38;0.10;;;19.60;50.10;;;;;;5076070;28;20130;-65
2023/01/09 07:57:05;;;;;;;2.45;0.10;;;19.70;50.10;;;;;;5074091;28;20153;-73
2023/01/09 07:59:33;;;;;;;2.42;0.20;;;19.70;50.00;;;;;;5075541;28;20052;-70
2023/01/09 08:02:01;;;;;;;1.65;0.20;;;19.80;49.90;;;;;;5075581;28;20090;-72
2023/01/09 08:04:28;;;;;;;3.00;0.10;;;19.80;49.80;;;;;;5074906;28;20045;-68
2023/01/09 08:06:55;;;;;;;4.00;0.32;;;19.90;49.70;;;;;;5076128;28;20054;-67
2023/01/09 08:09:22;;;;;;;1.20;0.10;;;19.90;49.60;;;;;;5073165;28;20062;-61
2023/01/09 08:11:51;;;;;;;1.17;0.03;;;19.90;49.50;;;;;;5074545;28;20059;-63
2023/01/09 08:14:18;;;;;;;0.22;0.00;;;20.00;49.40;;;;;;5075020;28;20130;-64
2023/01/09 08:16:45;;;;;;;2.58;0.40;;;20.00;49.10;;;;;;5075744;28;20429;-62
2023/01/09 08:19:12;;;;;;;3.95;0.00;;;20.10;49.00;;;;;;5074540;28;20043;-64
2023/01/09 08:21:39;;;;;;;1.80;0.57;;;20.10;48.80;;;;;;5075094;28;20125;-64
2023/01/09 08:24:07;;;;;;;1.83;0.35;;;20.10;48.80;;;;;;5074273;28;20535;-65
2023/01/09 08:26:34;;;;;;;3.67;0.05;;;20.10;48.80;;;;;;5073817;28;20040;-67
2023/01/09 08:29:02;;;;;;;2.22;0.20;;;20.20;48.80;;;;;;5074118;28;20047;-57
2023/01/09 08:31:29;;;;;;;0.80;0.10;;;20.20;48.70;;;;;;5074585;28;20041;-59
2023/01/09 08:33:56;;;;;;;2.03;0.10;;;20.20;48.70;;;;;;5074162;28;20127;-56
2023/01/09 08:36:23;;;;;;;1.17;0.00;;;20.20;48.50;;;;;;5074352;28;20816;-58
2023/01/09 08:38:50;;;;;;;2.08;0.10;;;20.20;48.50;;;;;;5074550;28;20037;-59
2023/01/09 08:47:06;;;;;;;0.00;0.00;;;20.30;48.40;;;;;;5002661;28;20053;-58
2023/01/09 08:49:34;;;;;;;0.40;0.00;;;20.30;48.30;;;;;;5003773;28;20077;-62
2023/01/09 08:52:02;;;;;;;0.60;0.28;;;20.40;48.20;;;;;;5004109;28;20559;-64
2023/01/09 08:54:29;;;;;;;9.07;0.10;;;20.40;48.00;;;;;;5004061;28;20046;-64
2023/01/09 08:56:56;;;;;;;1.17;0.10;;;20.40;47.90;;;;;;5003465;28;20057;-64
2023/01/09 08:59:25;;;;;;;2.25;0.10;;;20.50;47.60;;;;;;5018596;28;20495;-64
2023/01/09 09:01:53;;;;;;;1.50;0.00;;;20.50;47.30;;;;;;5011876;28;20053;-65
2023/01/09 09:04:20;;;;;;;3.78;0.10;;;20.60;47.20;;;;;;4985902;28;20042;-63
2023/01/09 09:06:47;;;;;;;3.20;0.20;;;20.60;47.00;;;;;;4983821;28;20042;-63
2023/01/09 09:09:14;;;;;;;3.20;0.25;;;20.60;46.70;;;;;;4984322;28;20057;-64
2023/01/09 09:11:42;;;;;;;10.00;2.25;;;20.70;46.70;;;;;;5003615;28;20170;-64
2023/01/09 09:16:51;;;;;;;1.35;0.00;;;20.60;46.50;;;;;;5002394;28;20568;-64
2023/01/09 09:19:19;;;;;;;1.10;0.00;;;20.70;46.40;;;;;;5003258;28;20137;-64
2023/01/09 09:21:46;;;;;;;3.05;0.10;;;20.70;46.20;;;;;;5032201;28;20148;-64
2023/01/09 09:24:13;;;;;;;1.83;0.15;;;20.70;46.10;;;;;;5045246;28;20052;-63
2023/01/09 09:26:41;;;;;;;1.75;0.10;;;20.70;46.10;;;;;;5045481;28;20058;-63
2023/01/09 09:29:09;;;;;;;4.63;0.10;;;20.70;45.90;;;;;;5045432;28;20513;-64
2023/01/09 09:31:37;;;;;;;0.65;0.00;;;20.70;45.90;;;;;;5045579;28;20045;-64
2023/01/09 09:34:06;;;;;;;0.20;0.00;;;20.70;45.80;;;;;;5045545;28;20036;-64
2023/01/09 09:36:33;;;;;;;0.03;0.00;;;20.70;45.70;;;;;;5045280;28;20107;-64
2023/01/09 09:39:02;;;;;;;0.75;0.05;;;20.70;45.60;;;;;;5045410;28;20802;-67
2023/01/09 09:45:02;;;;;;;4.43;0.10;;;20.80;45.90;;;;;;5003200;28;20105;-67
2023/01/09 09:47:42;;;;;;;6.70;0.10;;;20.70;46.00;;;;;;4990533;28;20054;-69
2023/01/09 09:50:35;;;;;;;1.00;0.25;;;20.70;45.60;;;;;;4982883;28;20438;-69
2023/01/09 09:53:09;;;;;;;8.70;0.20;;;20.70;45.00;;;;;;4982338;28;20046;-68
2023/01/09 09:55:39;;;;;;;1.95;0.10;;;20.70;44.70;;;;;;4982971;28;20473;-69
2023/01/09 09:58:15;;;;;;;2.65;0.52;;;20.70;45.00;;;;;;4983697;28;20058;-69
2023/01/09 10:00:42;;;;;;;2.75;0.30;;;20.70;44.20;;;;;;4983098;28;20050;-69
2023/01/09 10:03:26;;;;;;;1.02;0.03;;;20.70;44.20;;;;;;4983503;28;20137;-69
2023/01/09 10:05:57;;;;;;;2.63;0.17;;;20.70;43.80;;;;;;4983493;28;20054;-70
2023/01/09 10:08:35;;;;;;;5.25;0.00;;;20.70;43.90;;;;;;4983095;28;20057;-69
2023/01/09 10:11:03;;;;;;;0.38;0.00;;;20.70;43.70;;;;;;4999021;28;20461;-70
2023/01/09 10:16:27;;;;;;;1.02;0.00;;;20.70;43.50;;;;;;5002823;28;20077;-71
2023/01/09 10:19:05;;;;;;;2.40;0.05;;;20.70;43.20;;;;;;4986688;28;20057;-70
2023/01/09 10:21:40;;;;;;;0.68;0.13;;;20.70;43.30;;;;;;5056163;28;20056;-70
2023/01/09 10:24:23;;;;;;;0.30;0.00;;;20.70;43.30;;;;;;5065530;28;20052;-69
2023/01/09 10:26:52;;;;;;;1.10;0.08;;;20.70;43.20;;;;;;5065206;28;20335;-69
2023/01/09 10:29:40;;;;;;;1.40;0.10;;;20.70;43.30;;;;;;5065552;28;20123;-70
2023/01/09 10:32:26;;;;;;;0.70;0.00;;;20.70;43.10;;;;;;5065309;28;20587;-69
2023/01/09 10:35:01;;;;;;;0.47;0.00;;;20.60;42.90;;;;;;5065249;28;20428;-70
2023/01/09 10:37:33;;;;;;;0.63;0.05;;;20.70;43.10;;;;;;5064801;28;20453;-70
2023/01/09 10:40:06;;;;;;;0.13;0.00;;;20.60;42.90;;;;;;5054177;28;20052;-70
2023/01/09 10:42:39;;;;;;;0.57;0.10;;;20.60;42.70;;;;;;5055016;28;20142;-70
2023/01/09 10:45:14;;;;;;;0.30;0.00;;;20.60;42.60;;;;;;5065040;28;20417;-70
2023/01/09 10:47:44;;;;;;;0.60;0.40;;;20.70;42.60;;;;;;5065424;28;20048;-70
2023/01/09 10:50:20;;;;;;;2.20;0.00;;;20.60;42.50;;;;;;5065078;28;20064;-70
2023/01/09 10:52:50;;;;;;;1.05;0.00;;;20.60;42.20;;;;;;5064932;28;20052;-70
2023/01/09 10:55:31;;;;;;;1.23;0.15;;;20.60;42.20;;;;;;5061521;28;20080;-70
2023/01/09 10:58:01;;;;;;;0.90;0.35;;;20.70;42.20;;;;;;5064941;28;20055;-70
2023/01/09 11:00:29;;;;;;;1.42;0.35;;;20.60;42.30;;;;;;5065192;28;20795;-70
2023/01/09 11:02:56;;;;;;;0.08;0.00;;;20.60;42.00;;;;;;5065117;28;20478;-69
2023/01/09 11:05:26;;;;;;;1.55;0.30;;;20.60;41.90;;;;;;5064145;28;20048;-70
2023/01/09 11:07:59;;;;;;;4.50;0.00;;;20.70;41.80;;;;;;5065282;28;20519;-70
2023/01/09 11:10:46;;;;;;;0.20;0.00;;;20.70;42.10;;;;;;5064809;28;20569;-70
2023/01/09 11:13:14;;;;;;;;;;;20.70;42.10;;;;;;5065229;28;20083;-70
2023/01/09 11:15:41;;;;;;;0.85;0.00;;;20.60;42.50;;;;;;5064752;28;19924;-70
2023/01/09 11:18:24;;;;;;;0.55;0.00;;;20.60;42.60;;;;;;5063522;28;20122;-70
2023/01/09 11:20:52;;;;;;;0.30;0.00;;;20.60;42.30;;;;;;5064464;28;20036;-69
2023/01/09 11:23:28;;;;;;;1.23;0.10;;;20.60;42.30;;;;;;5065129;28;20106;-70
2023/01/09 11:25:57;;;;;;;0.95;0.30;;;20.70;42.30;;;;;;5067698;28;20052;-70
2023/01/09 11:28:25;;;;;;;0.55;0.00;;;20.70;42.20;;;;;;5058274;28;20064;-70
2023/01/09 11:30:54;;;;;;;0.65;0.00;;;20.70;42.30;;;;;;5046762;28;20064;-70
2023/01/09 11:33:24;;;;;;;2.47;0.00;;;20.80;42.40;;;;;;5047187;28;20045;-70
2023/01/09 11:36:11;;;;;;;0.15;0.00;;;20.80;42.50;;;;;;5047735;28;20446;-70
2023/01/09 11:38:50;;;;;;;;;;;20.80;42.60;;;;;;5047260;28;20045;-70
2023/01/09 11:41:20;;;;;;;3.08;0.60;;;20.70;42.80;;;;;;5047952;28;19968;-70
2023/01/09 11:43:50;;;;;;;0.85;0.00;;;20.70;42.70;;;;;;5047748;28;20580;-70
2023/01/09 11:46:36;;;;;;;2.92;0.10;;;20.80;42.50;;;;;;5047677;28;20049;-70
2023/01/09 11:49:05;;;;;;;0.25;0.10;;;20.80;42.20;;;;;;5047449;28;20120;-70
2023/01/09 11:51:34;;;;;;;0.30;0.00;;;20.80;42.00;;;;;;5058345;28;20052;-70
2023/01/09 11:54:14;;;;;;;1.77;0.15;;;20.90;41.90;;;;;;5068176;28;20047;-70
2023/01/09 11:56:42;;;;;;;0.57;0.10;;;20.90;41.70;;;;;;5067953;28;20049;-70
2023/01/09 11:59:11;;;;;;;0.38;0.00;;;20.90;41.80;;;;;;5065908;28;20143;-70
2023/01/09 12:02:00;;;;;;;2.03;0.00;;;21.00;41.80;;;;;;5067623;28;20589;-70
2023/01/09 12:04:32;;;;;;;0.90;0.30;;;21.00;41.50;;;;;;5065991;28;20081;-70
2023/01/09 12:07:17;;;;;;;1.63;0.05;;;21.00;41.60;;;;;;5063530;28;20274;-69
2023/01/09 12:09:55;;;;;;;0.20;0.20;;;21.10;42.10;;;;;;5056471;28;20087;-65
2023/01/09 12:12:28;;;;;;;0.10;0.00;;;21.10;42.80;;;;;;5048610;28;20044;-75
2023/01/09 12:15:12;;;;;;;7.43;0.10;;;21.10;43.20;;;;;;5049762;28;20032;-67
2023/01/09 12:18:02;;;;;;;1.20;0.00;;;21.10;43.50;;;;;;5066393;28;20049;-53
2023/01/09 12:20:40;;;;;;;0.65;0.38;;;21.20;43.70;;;;;;5066962;28;20052;-66
2023/01/09 12:23:23;;;;;;;2.97;0.00;;;21.20;44.00;;;;;;5067721;28;20048;-61
2023/01/09 12:26:00;;;;;;;1.95;0.17;;;21.20;44.20;;;;;;5053046;28;20103;-63
2023/01/09 12:28:48;;;;;;;5.00;0.00;;;21.20;44.10;;;;;;5047197;28;20456;-71
2023/01/09 12:31:41;;;;;;;0.93;0.10;;;21.20;44.20;;;;;;5045495;28;20045;-69
2023/01/09 12:34:27;;;;;;;1.02;0.10;;;21.30;44.10;;;;;;5060118;28;20049;-69
2023/01/09 12:37:09;;;;;;;0.60;0.20;;;21.30;44.10;;;;;;5066104;28;20047;-69
2023/01/09 12:39:45;;;;;;;0.30;0.03;;;21.30;44.10;;;;;;5066685;28;20041;-70
2023/01/09 12:42:30;;;;;;;2.80;0.40;;;21.30;44.10;;;;;;5064877;28;20040;-70
2023/01/09 12:45:01;;;;;;;0.68;0.55;;;21.30;44.10;;;;;;5066385;28;20498;-69
2023/01/09 12:47:46;;;;;;;2.95;0.10;;;21.20;44.00;;;;;;5046185;28;20132;-70
2023/01/09 12:50:44;;;;;;;5.90;0.30;;;21.30;44.00;;;;;;5047021;28;20047;-68
2023/01/09 12:53:22;;;;;;;1.52;0.10;;;21.30;43.90;;;;;;5065508;28;20044;-69
2023/01/09 12:55:55;;;;;;;1.52;0.00;;;21.30;44.00;;;;;;5066240;28;20160;-69
2023/01/09 12:58:33;;;;;;;4.38;0.10;;;21.30;44.00;;;;;;5066147;28;20036;-62
2023/01/09 13:01:06;;;;;;;4.50;0.10;;;21.30;44.00;;;;;;5062273;28;20047;-60
2023/01/09 13:03:39;;;;;;;2.67;0.10;;;21.30;44.10;;;;;;5066198;28;20100;-62
2023/01/09 13:06:10;;;;;;;1.02;0.10;;;21.30;44.20;;;;;;5050658;28;20448;-60
2023/01/09 13:08:41;;;;;;;6.75;0.10;;;21.30;44.30;;;;;;5053547;28;20044;-55
2023/01/09 13:11:12;;;;;;;1.65;1.38;;;21.30;44.30;;;;;;5062792;28;20090;-55
2023/01/09 13:13:47;;;;;;;2.50;0.10;;;21.30;44.40;;;;;;5066072;28;20429;-62
2023/01/09 13:16:18;;;;;;;2.10;0.60;;;21.30;44.40;;;;;;5065282;28;20915;-61
2023/01/09 13:18:52;;;;;;;13.30;0.30;;;21.30;44.50;;;;;;5066103;28;20129;-57
2023/01/09 13:21:20;;;;;;;4.85;0.20;;;21.30;44.60;;;;;;5066006;28;20740;-60
2023/01/09 13:23:53;;;;;;;1.23;0.38;;;21.30;44.50;;;;;;5065535;28;20043;-56